Time;durP1;ratioP1;P1;durP2;ratioP2;P2;SDS_P1;SDS_P2;PMS_P1;PMS_P2;Temp;Humidity;BMP_temperature;BMP_pressure;BME280_temperature;BME280_humidity;BME280_pressure;Samples;Min_cycle;Max_cycle;Signal;HPM_P1;HPM_P2
2023/08/11 00:03:01;;;;;;;3.47;2.20;;;;;;;19.65;62.38;97117.41;10527936;28;20028;-28
2023/08/11 00:08:01;;;;;;;2.88;2.30;;;;;;;19.74;62.86;97136.88;10522567;28;20042;-31
2023/08/11 00:13:02;;;;;;;3.70;2.60;;;;;;;19.70;62.65;97136.06;10522026;28;20036;-28
2023/08/11 00:18:03;;;;;;;3.13;2.55;;;;;;;19.64;62.80;97122.47;10537438;28;20036;-27
2023/08/11 00:23:03;;;;;;;3.53;2.83;;;;;;;19.70;62.64;97136.06;10528125;28;20047;-28
2023/08/11 00:28:04;;;;;;;1.83;1.63;;;;;;;19.73;62.65;97150.44;10527611;28;20286;-30
2023/08/11 00:33:05;;;;;;;3.08;1.98;;;;;;;19.70;62.79;97143.69;10518715;28;20127;-29
2023/08/11 00:38:05;;;;;;;3.42;2.15;;;;;;;19.72;62.72;97143.66;10521776;28;20464;-28
2023/08/11 00:43:06;;;;;;;4.40;2.53;;;;;;;19.72;62.80;97143.66;10516149;28;20483;-29
2023/08/11 00:48:06;;;;;;;2.95;2.20;;;;;;;19.72;62.74;97143.66;10534714;28;20517;-29
2023/08/11 00:53:07;;;;;;;3.58;2.28;;;;;;;19.72;62.72;97138.59;10519029;28;20044;-29
2023/08/11 00:58:08;;;;;;;3.40;2.45;;;;;;;19.71;62.82;97132.69;10507822;28;20521;-29
2023/08/11 01:03:08;;;;;;;2.80;2.28;;;;;;;19.72;62.80;97125.88;10509421;28;20020;-29
2023/08/11 01:08:33;;;;;;;2.40;2.20;;;;;;;19.73;62.77;97130.13;10513734;28;20462;-29
2023/08/11 01:13:44;;;;;;;3.53;2.45;;;;;;;19.70;62.52;97128.44;10512227;28;20025;-29
2023/08/11 01:18:45;;;;;;;3.33;2.17;;;;;;;19.73;62.67;97137.75;10503482;28;20549;-29
2023/08/11 01:23:46;;;;;;;2.13;1.92;;;;;;;19.66;62.65;97128.44;10511130;28;20032;-29
2023/08/11 01:28:47;;;;;;;3.20;1.92;;;;;;;19.71;62.65;97139.44;10502807;28;20494;-28
2023/08/11 01:33:47;;;;;;;3.53;2.20;;;;;;;19.71;62.42;97147.91;10510559;28;20089;-28
2023/08/11 01:38:48;;;;;;;3.07;2.13;;;;;;;19.70;62.51;97146.22;10502591;28;20055;-28
2023/08/11 01:43:51;;;;;;;2.77;1.90;;;;;;;19.69;62.51;97152.13;10510573;28;20513;-28
2023/08/11 01:48:53;;;;;;;3.03;2.10;;;;;;;19.69;62.34;97153.84;10539375;28;20020;-28
2023/08/11 01:53:54;;;;;;;2.70;2.13;;;;;;;19.69;62.67;97152.13;10510937;28;20529;-28
2023/08/11 01:58:56;;;;;;;3.13;2.03;;;;;;;19.69;62.51;97147.03;10525450;28;20418;-29
2023/08/11 02:03:57;;;;;;;2.00;1.77;;;;;;;19.69;62.39;97136.88;10519689;28;20020;-29
2023/08/11 02:09:00;;;;;;;2.58;1.98;;;;;;;19.70;62.37;97140.28;10534022;28;20032;-29
2023/08/11 02:14:00;;;;;;;2.47;1.85;;;;;;;19.69;62.33;97143.69;10529531;28;20281;-29
2023/08/11 02:19:01;;;;;;;1.73;1.63;;;;;;;19.70;62.45;97140.28;10538742;28;20432;-29
2023/08/11 02:24:01;;;;;;;2.33;1.90;;;;;;;19.70;62.29;97140.28;10509856;28;20130;-28
2023/08/11 02:29:03;;;;;;;3.08;1.95;;;;;;;19.70;62.39;97145.38;10529297;28;20286;-28
2023/08/11 02:34:04;;;;;;;3.13;1.98;;;;;;;19.68;62.34;97136.91;10538507;28;20088;-28
2023/08/11 02:39:05;;;;;;;2.75;1.92;;;;;;;19.67;62.18;97125.88;10535220;28;20081;-28
2023/08/11 02:44:05;;;;;;;2.35;1.88;;;;;;;19.70;62.27;97122.50;10507094;28;20035;-28
2023/08/11 02:49:07;;;;;;;2.87;1.90;;;;;;;19.69;62.10;97123.34;10530336;28;20508;-29
2023/08/11 02:54:07;;;;;;;3.20;2.05;;;;;;;19.69;61.91;97119.09;10506374;28;20097;-29
2023/08/11 02:59:07;;;;;;;2.20;1.73;;;;;;;19.68;62.23;97122.50;10510793;28;20092;-29
2023/08/11 03:04:08;;;;;;;2.43;1.93;;;;;;;19.63;62.25;97110.63;10509654;28;20039;-29
2023/08/11 03:09:08;;;;;;;2.60;1.85;;;;;;;19.68;62.20;97122.50;10514068;28;20036;-29
2023/08/11 03:14:09;;;;;;;2.83;2.00;;;;;;;19.70;62.17;97119.97;10508927;28;20131;-28
2023/08/11 03:19:09;;;;;;;2.40;1.93;;;;;;;19.68;62.18;97124.19;10536880;28;20028;-29
2023/08/11 03:24:10;;;;;;;1.90;1.67;;;;;;;19.69;62.01;97118.28;10528219;28;20287;-28
2023/08/11 03:29:10;;;;;;;2.03;1.70;;;;;;;19.69;62.17;97128.44;10511323;28;20032;-28
2023/08/11 03:34:12;;;;;;;1.65;1.55;;;;;;;19.69;62.06;97123.34;10515809;28;20116;-29
2023/08/11 03:39:12;;;;;;;2.20;1.80;;;;;;;19.68;62.01;97129.28;10517347;28;20036;-29
2023/08/11 03:44:14;;;;;;;2.92;1.70;;;;;;;19.68;62.14;97136.91;10526256;28;20315;-29
2023/08/11 03:49:14;;;;;;;2.90;1.77;;;;;;;19.69;62.86;97136.06;10502942;28;20128;-28
2023/08/11 03:54:16;;;;;;;2.53;1.80;;;;;;;19.67;62.33;97137.75;10514832;28;20856;-29
2023/08/11 03:59:16;;;;;;;3.63;1.77;;;;;;;19.68;62.48;97147.06;10519296;28;20141;-28
2023/08/11 04:04:17;;;;;;;6.10;2.33;;;;;;;19.69;61.99;97143.69;10512093;28;20710;-31
2023/08/11 04:09:18;;;;;;;4.93;1.95;;;;;;;19.67;61.90;97145.38;10528322;28;20085;-29
2023/08/11 04:14:18;;;;;;;2.35;1.67;;;;;;;19.66;62.40;97148.75;10516421;28;20952;-29
2023/08/11 04:19:19;;;;;;;5.93;2.90;;;;;;;19.66;64.86;97146.22;10513957;28;20031;-28
2023/08/11 04:24:21;;;;;;;4.05;1.98;;;;;;;19.65;64.23;97158.06;10512206;28;20063;-29
2023/08/11 04:29:21;;;;;;;2.95;2.53;;;;;;;19.61;65.29;97160.59;10511703;28;20055;-28
2023/08/11 04:34:22;;;;;;;4.55;2.60;;;;;;;19.54;65.40;97154.66;10498265;28;20425;-28
2023/08/11 04:39:23;;;;;;;2.85;2.42;;;;;;;19.55;65.56;97165.66;10528860;28;20032;-29
2023/08/11 04:44:23;;;;;;;6.65;2.95;;;;;;;19.50;65.34;97159.72;10497764;28;20020;-29
2023/08/11 04:49:24;;;;;;;3.17;2.92;;;;;;;19.51;64.55;97158.88;10489893;28;20411;-30
2023/08/11 04:54:24;;;;;;;3.35;2.80;;;;;;;19.49;64.88;97160.56;10523870;28;20034;-29
2023/08/11 04:59:25;;;;;;;2.85;2.55;;;;;;;19.48;64.88;97169.00;10523094;28;20048;-30
2023/08/11 05:04:26;;;;;;;5.97;2.60;;;;;;;19.50;64.48;97173.25;10521468;28;20046;-29
2023/08/11 05:09:26;;;;;;;3.78;2.80;;;;;;;19.49;64.74;97171.56;10513848;28;20278;-29
2023/08/11 05:14:27;;;;;;;4.13;2.67;;;;;;;19.48;64.40;97169.00;10522106;28;20035;-30
2023/08/11 05:19:27;;;;;;;3.37;2.37;;;;;;;19.51;64.54;97184.28;10525899;28;20278;-30
2023/08/11 05:24:27;;;;;;;3.57;2.47;;;;;;;19.52;64.32;97179.19;10526946;28;20028;-28
2023/08/11 05:29:28;;;;;;;4.57;2.43;;;;;;;19.55;64.43;97196.13;10529636;28;20284;-29
2023/08/11 05:34:28;;;;;;;4.80;2.70;;;;;;;19.53;64.51;97192.75;10534848;28;20278;-28
2023/08/11 05:39:29;;;;;;;4.05;2.88;;;;;;;19.54;64.98;97196.97;10538396;28;20036;-29
2023/08/11 05:44:29;;;;;;;3.73;2.30;;;;;;;19.54;64.52;97192.75;10525201;28;20109;-29
2023/08/11 05:49:33;;;;;;;2.60;2.37;;;;;;;19.56;64.73;97196.13;10535211;28;20031;-29
2023/08/11 05:54:33;;;;;;;3.67;2.60;;;;;;;19.53;64.60;97188.53;10524316;28;20448;-29
2023/08/11 05:59:33;;;;;;;4.23;2.60;;;;;;;19.58;64.15;97186.00;10537526;28;20078;-29
2023/08/11 06:04:34;;;;;;;3.20;1.97;;;;;;;19.60;64.06;97184.31;10533161;28;20032;-28
2023/08/11 06:09:35;;;;;;;2.80;2.30;;;;;;;19.62;63.87;97188.53;10534631;28;20077;-28
2023/08/11 06:14:35;;;;;;;5.23;2.33;;;;;;;19.63;63.86;97185.16;10533099;28;20559;-29
2023/08/11 06:19:35;;;;;;;3.37;2.50;;;;;;;19.64;63.75;97183.44;10529603;28;20373;-28
2023/08/11 06:24:36;;;;;;;2.30;2.10;;;;;;;19.65;63.63;97183.47;10549153;28;20089;-30
2023/08/11 06:29:36;;;;;;;2.80;2.30;;;;;;;19.65;63.41;97188.53;10529287;28;20369;-29
2023/08/11 06:34:37;;;;;;;3.00;1.85;;;;;;;19.65;63.33;97188.53;10544346;28;20044;-29
2023/08/11 06:39:37;;;;;;;3.43;2.50;;;;;;;19.66;63.42;97189.41;10527439;28;20110;-29
2023/08/11 06:44:37;;;;;;;3.20;2.37;;;;;;;19.68;63.43;97182.63;10533792;28;20294;-29
2023/08/11 06:49:38;;;;;;;3.33;2.10;;;;;;;19.68;63.20;97187.72;10526116;28;20290;-28
2023/08/11 06:54:39;;;;;;;4.50;2.40;;;;;;;19.69;64.22;97181.78;10525382;28;20059;-29
2023/08/11 06:59:39;;;;;;;2.30;2.10;;;;;;;19.69;63.32;97185.16;10525171;28;20131;-29
2023/08/11 07:04:40;;;;;;;3.20;2.13;;;;;;;19.70;62.78;97180.94;10535755;28;20150;-29
2023/08/11 07:09:40;;;;;;;2.10;1.90;;;;;;;19.69;62.98;97184.31;10530549;28;20445;-28
2023/08/11 07:14:43;;;;;;;2.87;1.80;;;;;;;19.65;63.11;97167.38;10537774;28;20032;-28
2023/08/11 07:19:44;;;;;;;3.85;2.00;;;;;;;19.72;63.07;97186.84;10535866;28;20032;-28
2023/08/11 07:24:44;;;;;;;2.07;1.77;;;;;;;19.72;63.12;97184.31;10523261;28;20028;-28
2023/08/11 07:29:45;;;;;;;1.83;1.60;;;;;;;19.72;63.06;97189.41;10532235;28;20040;-28
2023/08/11 07:34:45;;;;;;;3.83;1.73;;;;;;;19.73;63.14;97186.00;10538313;28;20873;-28
2023/08/11 07:39:45;;;;;;;3.07;2.10;;;;;;;19.71;63.04;97191.13;10526096;28;20059;-28
2023/08/11 07:44:46;;;;;;;5.03;2.30;;;;;;;19.73;63.31;97191.09;10533540;28;20074;-29
2023/08/11 07:49:46;;;;;;;6.10;2.40;;;;;;;19.72;64.43;97192.81;10526143;28;20283;-29
2023/08/11 07:54:46;;;;;;;16.77;2.60;;;;;;;19.74;63.87;97191.09;10518378;28;20402;-28
2023/08/11 07:59:47;;;;;;;6.03;1.98;;;;;;;19.74;63.64;97192.78;10523013;28;20056;-29
2023/08/11 08:04:47;;;;;;;4.23;2.23;;;;;;;19.74;63.41;97202.94;10531144;28;20028;-29
2023/08/11 08:09:48;;;;;;;6.90;2.45;;;;;;;19.74;63.35;97205.50;10531455;28;20479;-28
2023/08/11 08:14:48;;;;;;;6.93;2.00;;;;;;;19.75;63.64;97202.13;10526788;28;20036;-29
2023/08/11 08:19:49;;;;;;;9.53;2.83;;;;;;;19.76;63.83;97201.28;10531071;28;20028;-29
2023/08/11 08:24:50;;;;;;;5.75;2.92;;;;;;;19.74;63.85;97197.88;10519320;28;20099;-29
2023/08/11 08:29:51;;;;;;;7.15;2.70;;;;;;;19.77;63.94;97202.97;10534085;28;20111;-28
2023/08/11 08:34:52;;;;;;;9.00;3.13;;;;;;;19.77;65.17;97206.34;10532692;28;20062;-29
2023/08/11 08:39:52;;;;;;;10.30;3.13;;;;;;;19.76;64.42;97196.19;10520083;28;20124;-28
2023/08/11 08:44:54;;;;;;;7.05;3.28;;;;;;;19.79;64.21;97196.19;10527642;28;20478;-29
2023/08/11 08:49:55;;;;;;;8.07;3.40;;;;;;;19.76;63.99;97197.03;10533491;28;20035;-29
2023/08/11 08:54:57;;;;;;;9.07;3.58;;;;;;;19.79;64.22;97196.19;10520858;28;20140;-28
2023/08/11 08:59:57;;;;;;;7.57;4.35;;;;;;;19.78;64.35;97203.00;10532750;28;20500;-29
2023/08/11 09:04:58;;;;;;;9.90;4.20;;;;;;;19.77;65.62;97195.34;10523686;28;20038;-29
2023/08/11 09:09:58;;;;;;;5.40;3.70;;;;;;;19.76;65.35;97201.28;10531656;28;20297;-28
2023/08/11 09:15:06;;;;;;;6.50;3.97;;;;;;;19.78;65.62;97195.38;10539017;28;20053;-28
2023/08/11 09:20:10;;;;;;;6.93;3.80;;;;;;;19.77;65.48;97201.25;10527336;28;20036;-28
2023/08/11 09:25:12;;;;;;;5.70;3.00;;;;;;;19.79;65.58;97208.91;10530858;28;20600;-29
2023/08/11 09:30:13;;;;;;;6.22;3.85;;;;;;;19.79;65.20;97196.19;10532656;28;20391;-28
2023/08/11 09:35:14;;;;;;;6.05;3.25;;;;;;;19.78;65.41;97205.53;10530161;28;20758;-28
2023/08/11 09:40:16;;;;;;;4.32;3.20;;;;;;;19.83;65.29;97201.28;10524902;28;20032;-28
2023/08/11 09:45:18;;;;;;;4.40;2.85;;;;;;;19.88;65.67;97208.91;10528054;28;20028;-28
2023/08/11 09:50:18;;;;;;;4.43;2.70;;;;;;;19.87;65.70;97205.56;10517344;28;20124;-29
2023/08/11 09:55:20;;;;;;;5.13;3.43;;;;;;;19.91;65.78;97201.31;10526361;28;20500;-29
2023/08/11 10:00:21;;;;;;;3.38;2.65;;;;;;;19.92;65.57;97211.47;10517109;28;20024;-29
2023/08/11 10:05:22;;;;;;;6.15;3.03;;;;;;;19.96;65.40;97207.25;10527012;28;20469;-28
2023/08/11 10:10:23;;;;;;;4.13;2.80;;;;;;;19.95;65.49;97197.94;10527168;28;20523;-29
2023/08/11 10:15:25;;;;;;;3.60;2.75;;;;;;;19.96;65.43;97207.25;10540809;28;20020;-29
2023/08/11 10:20:26;;;;;;;8.65;4.38;;;;;;;19.98;65.63;97203.00;10538464;28;20109;-28
2023/08/11 10:25:27;;;;;;;7.03;3.28;;;;;;;19.97;65.63;97201.31;10530238;28;20020;-29
2023/08/11 10:30:28;;;;;;;5.43;2.72;;;;;;;19.96;65.55;97199.63;10534284;28;20039;-28
2023/08/11 10:35:47;;;;;;;5.20;2.97;;;;;;;19.98;65.58;97200.47;10531721;28;20051;-28
2023/08/11 10:40:48;;;;;;;6.43;3.50;;;;;;;19.97;65.26;97199.63;10527490;28;20066;-28
2023/08/11 10:45:49;;;;;;;4.72;2.58;;;;;;;19.96;65.39;97199.63;10528071;28;20067;-28
2023/08/11 10:50:49;;;;;;;6.30;2.80;;;;;;;19.97;65.46;97191.16;10530240;28;20494;-28
2023/08/11 10:56:00;;;;;;;5.47;2.37;;;;;;;19.93;65.54;97192.00;10528222;28;20028;-29
2023/08/11 11:01:01;;;;;;;15.40;5.47;;;;;;;19.97;65.73;97191.16;10524325;28;20051;-28
2023/08/11 11:06:04;;;;;;;6.30;2.97;;;;;;;19.97;65.10;97191.16;10523743;28;20036;-29
2023/08/11 11:11:04;;;;;;;9.57;3.13;;;;;;;19.97;65.12;97180.97;10537426;28;20270;-29
2023/08/11 11:16:05;;;;;;;6.65;2.75;;;;;;;19.97;65.38;97183.53;10534932;28;20055;-28
2023/08/11 11:21:06;;;;;;;5.10;2.65;;;;;;;19.98;65.53;97177.59;10553254;28;20422;-30
2023/08/11 11:26:06;;;;;;;5.93;2.67;;;;;;;19.98;65.39;97172.50;10538316;28;20043;-29
2023/08/11 11:31:07;;;;;;;7.30;2.90;;;;;;;19.98;65.36;97172.50;10532541;28;20043;-27
2023/08/11 11:36:08;;;;;;;8.85;3.08;;;;;;;19.97;65.61;97179.31;10528194;28;20043;-28
2023/08/11 11:41:13;;;;;;;5.90;2.83;;;;;;;19.94;65.16;97165.75;10528921;28;20489;-29
2023/08/11 11:46:15;;;;;;;5.43;3.10;;;;;;;19.98;65.36;97182.66;10532930;28;20391;-29
2023/08/11 11:51:17;;;;;;;11.13;3.15;;;;;;;19.98;66.03;97181.00;10531469;28;20036;-29
2023/08/11 11:56:18;;;;;;;16.65;3.88;;;;;;;19.99;65.48;97184.38;10536344;28;20194;-28
2023/08/11 12:01:21;;;;;;;11.95;3.70;;;;;;;19.98;65.47;97180.13;10536175;28;20046;-28
2023/08/11 12:06:22;;;;;;;5.80;2.90;;;;;;;19.98;65.24;97182.66;10528562;28;20027;-28
2023/08/11 12:11:24;;;;;;;20.02;4.05;;;;;;;19.95;65.49;97178.47;10530256;28;20497;-29
2023/08/11 12:16:26;;;;;;;6.70;2.97;;;;;;;19.96;65.43;97171.66;10538389;28;20032;-29
2023/08/11 12:21:27;;;;;;;5.35;2.80;;;;;;;19.94;65.39;97171.66;10532444;28;20044;-28
2023/08/11 12:26:28;;;;;;;10.35;3.42;;;;;;;19.96;65.10;97166.59;10525933;28;20363;-29
2023/08/11 12:31:28;;;;;;;6.90;2.90;;;;;;;19.96;65.23;97169.97;10534388;28;20428;-29
2023/08/11 12:36:29;;;;;;;6.20;3.00;;;;;;;19.96;65.08;97164.91;10527338;28;20266;-28
2023/08/11 12:41:29;;;;;;;6.93;3.13;;;;;;;19.97;65.26;97174.22;10535232;28;20116;-29
2023/08/11 12:46:29;;;;;;;4.60;2.83;;;;;;;19.96;65.14;97169.97;10525593;28;20035;-28
2023/08/11 12:51:30;;;;;;;8.07;2.80;;;;;;;19.97;65.07;97170.81;10523971;28;20036;-29
2023/08/11 12:56:30;;;;;;;5.20;3.10;;;;;;;19.96;65.27;97164.91;10530936;28;20310;-28
2023/08/11 13:01:31;;;;;;;8.90;3.97;;;;;;;19.94;65.00;97160.66;10518808;28;20025;-28
2023/08/11 13:06:32;;;;;;;6.55;3.10;;;;;;;19.97;65.14;97160.66;10530393;28;20032;-29
2023/08/11 13:11:32;;;;;;;5.50;2.97;;;;;;;19.96;65.55;97154.75;10536306;28;20043;-29
2023/08/11 13:16:35;;;;;;;6.63;3.15;;;;;;;19.97;64.94;97155.56;10520047;28;20046;-29
2023/08/11 13:21:35;;;;;;;7.20;3.45;;;;;;;19.96;65.19;97159.81;10531725;28;20060;-28
2023/08/11 13:26:35;;;;;;;6.57;2.57;;;;;;;19.97;65.09;97153.03;10523201;28;20028;-28
2023/08/11 13:31:36;;;;;;;5.23;2.90;;;;;;;19.96;64.89;97153.88;10521299;28;20041;-28
2023/08/11 13:36:36;;;;;;;5.57;2.63;;;;;;;19.97;65.02;97147.94;10527497;28;20039;-28
2023/08/11 13:41:36;;;;;;;6.43;2.83;;;;;;;19.93;64.95;97128.47;10526161;28;20028;-28
2023/08/11 13:46:38;;;;;;;7.72;3.17;;;;;;;19.96;65.03;97134.41;10530162;28;20042;-29
2023/08/11 13:51:39;;;;;;;5.20;2.75;;;;;;;19.95;64.88;97129.31;10536088;28;20035;-28
2023/08/11 13:56:39;;;;;;;4.37;2.57;;;;;;;19.96;64.87;97125.91;10542757;28;20039;-28
2023/08/11 14:01:40;;;;;;;6.23;3.03;;;;;;;19.96;65.34;97128.47;10528621;28;20020;-29
2023/08/11 14:06:40;;;;;;;4.50;2.73;;;;;;;19.98;64.97;97122.53;10536140;28;20039;-29
2023/08/11 14:11:40;;;;;;;4.60;2.90;;;;;;;19.99;64.75;97113.19;10523653;28;20027;-28
2023/08/11 14:16:41;;;;;;;4.88;2.50;;;;;;;19.98;64.68;97106.44;10527619;28;20498;-29
2023/08/11 14:21:41;;;;;;;4.23;2.90;;;;;;;19.98;64.93;97108.97;10545505;28;20027;-29
2023/08/11 14:26:41;;;;;;;5.70;2.60;;;;;;;19.98;64.88;97108.97;10542063;28;20074;-28
2023/08/11 14:31:42;;;;;;;3.30;2.23;;;;;;;19.98;64.80;97109.84;10525485;28;20082;-29
2023/08/11 14:36:42;;;;;;;3.93;2.57;;;;;;;19.99;64.99;97100.50;10530763;28;20032;-29
2023/08/11 14:41:46;;;;;;;4.23;2.47;;;;;;;19.98;64.91;97097.13;10523214;28;20319;-29
2023/08/11 14:46:47;;;;;;;2.97;2.30;;;;;;;19.98;65.01;97086.97;10531811;28;20036;-29
2023/08/11 14:51:48;;;;;;;3.70;2.30;;;;;;;19.99;64.96;97088.66;10548076;28;20543;-29
2023/08/11 14:56:48;;;;;;;3.35;2.33;;;;;;;20.00;64.43;97079.34;10537995;28;20047;-30
2023/08/11 15:01:49;;;;;;;3.50;2.30;;;;;;;19.99;65.01;97075.06;10536968;28;20020;-28
2023/08/11 15:06:49;;;;;;;2.70;2.40;;;;;;;20.00;64.85;97074.25;10536993;28;20058;-29
2023/08/11 15:18:12;;;;;;;3.60;2.25;;;;;;;19.99;64.85;97070.84;10529837;28;20031;-29
2023/08/11 15:23:12;;;;;;;3.05;2.50;;;;;;;19.98;64.90;97063.22;10537197;28;20036;-28
2023/08/11 15:28:13;;;;;;;3.20;2.30;;;;;;;19.99;64.82;97062.38;10530676;28;20482;-28
2023/08/11 15:33:13;;;;;;;5.03;2.60;;;;;;;20.01;64.83;97060.69;10527433;28;20512;-28
2023/08/11 15:38:13;;;;;;;2.17;1.93;;;;;;;20.00;64.89;97059.00;10510140;28;20378;-29
2023/08/11 15:43:14;;;;;;;3.70;2.30;;;;;;;19.99;64.81;97040.34;10535411;28;20278;-28
2023/08/11 15:48:14;;;;;;;4.50;2.35;;;;;;;19.98;65.02;97040.34;10525300;28;20036;-28
2023/08/11 15:53:15;;;;;;;2.77;2.47;;;;;;;20.00;64.88;97038.69;10532645;28;20394;-29
2023/08/11 15:58:15;;;;;;;3.00;2.27;;;;;;;20.00;64.91;97028.50;10511622;28;20506;-28
2023/08/11 16:03:16;;;;;;;2.63;1.90;;;;;;;20.00;64.97;97020.88;10522996;28;20544;-29
2023/08/11 16:08:16;;;;;;;4.00;2.50;;;;;;;20.00;65.31;97025.97;10518248;28;20301;-29
2023/08/11 16:13:17;;;;;;;2.30;1.95;;;;;;;20.03;65.12;97019.16;10528092;28;20041;-29
2023/08/11 16:18:17;;;;;;;2.22;1.88;;;;;;;20.01;64.96;97025.13;10531268;28;20036;-29
2023/08/11 16:23:18;;;;;;;4.68;3.35;;;;;;;20.00;65.18;97021.72;10533420;28;20073;-28
2023/08/11 16:28:18;;;;;;;5.13;1.90;;;;;;;20.01;65.00;97020.03;10523414;28;20042;-29
2023/08/11 16:33:18;;;;;;;3.20;2.60;;;;;;;20.04;66.50;97020.91;10511595;28;20304;-29
2023/08/11 16:38:19;;;;;;;3.00;2.40;;;;;;;20.02;65.46;97027.63;10517230;28;20460;-29
2023/08/11 16:43:19;;;;;;;3.47;1.93;;;;;;;20.02;65.36;97029.34;10516668;28;20282;-28
2023/08/11 16:48:19;;;;;;;2.77;2.23;;;;;;;20.02;65.47;97026.81;10519099;28;20054;-28
2023/08/11 16:53:20;;;;;;;4.43;2.20;;;;;;;20.02;65.24;97026.81;10517244;28;20031;-29
2023/08/11 16:58:20;;;;;;;2.10;1.90;;;;;;;20.01;65.34;97020.88;10513718;28;20032;-29
2023/08/11 17:03:25;;;;;;;3.00;2.03;;;;;;;20.01;65.41;97020.03;10526724;28;20070;-29
2023/08/11 17:08:25;;;;;;;3.72;2.10;;;;;;;20.01;65.15;97020.03;10511149;28;20028;-28
2023/08/11 17:13:26;;;;;;;4.23;1.80;;;;;;;20.02;65.55;97024.25;10516287;28;20028;-28
2023/08/11 17:18:27;;;;;;;2.35;1.80;;;;;;;20.02;65.62;97019.19;10515176;28;20036;-29
2023/08/11 17:23:28;;;;;;;2.70;1.53;;;;;;;20.03;64.98;97018.31;10520687;28;20473;-29
2023/08/11 17:28:29;;;;;;;3.17;2.13;;;;;;;20.04;66.30;97020.00;10525257;28;20067;-31
2023/08/11 17:33:29;;;;;;;2.43;2.00;;;;;;;19.99;65.11;97012.41;10531450;28;20047;-30
2023/08/11 17:38:30;;;;;;;2.20;1.70;;;;;;;19.97;65.24;97009.03;10538660;28;20340;-29
2023/08/11 17:43:31;;;;;;;2.87;1.70;;;;;;;20.03;65.08;97013.25;10527669;28;20032;-29
2023/08/11 17:48:31;;;;;;;3.47;1.70;;;;;;;20.02;65.14;97003.94;10540940;28;20657;-27
2023/08/11 17:53:31;;;;;;;2.30;2.10;;;;;;;19.99;65.06;97002.22;10535359;28;20039;-28
2023/08/11 17:58:32;;;;;;;1.93;1.70;;;;;;;20.01;65.29;97007.31;10532468;28;20032;-29
2023/08/11 18:03:32;;;;;;;2.93;1.97;;;;;;;19.97;65.14;97000.53;10506566;28;20282;-29
2023/08/11 18:08:32;;;;;;;1.73;1.40;;;;;;;20.03;64.90;97008.16;10532515;28;20054;-30
2023/08/11 18:13:33;;;;;;;3.73;1.70;;;;;;;20.02;64.83;97020.00;10534626;28;20029;-28
2023/08/11 18:18:33;;;;;;;2.73;1.80;;;;;;;20.00;64.72;97018.34;10526978;28;20032;-28
2023/08/11 18:23:34;;;;;;;3.00;1.52;;;;;;;20.01;64.87;97020.88;10530945;28;20490;-29
2023/08/11 18:28:36;;;;;;;1.80;1.53;;;;;;;20.03;64.95;97028.50;10533283;28;20035;-29
2023/08/11 18:33:36;;;;;;;1.73;1.60;;;;;;;20.01;64.69;97028.50;10514612;28;20048;-28
2023/08/11 18:38:37;;;;;;;1.65;1.45;;;;;;;20.02;64.83;97026.81;10528213;28;20024;-28
2023/08/11 18:43:37;;;;;;;2.50;1.40;;;;;;;19.99;65.61;97031.88;10541957;28;20039;-29
2023/08/11 18:48:37;;;;;;;2.70;1.73;;;;;;;20.01;65.14;97041.19;10525448;28;20294;-30
2023/08/11 18:53:38;;;;;;;2.10;1.77;;;;;;;20.02;64.52;97042.06;10535404;28;20038;-29
2023/08/11 18:58:38;;;;;;;2.23;1.50;;;;;;;20.02;64.51;97049.69;10528085;28;20119;-29
2023/08/11 19:03:38;;;;;;;1.60;1.50;;;;;;;20.02;64.75;97047.13;10518552;28;20028;-28
2023/08/11 19:08:39;;;;;;;2.03;1.27;;;;;;;20.02;64.71;97047.13;10535013;28;20520;-28
2023/08/11 19:13:39;;;;;;;1.77;1.60;;;;;;;20.03;65.13;97053.91;10540178;28;20020;-29
2023/08/11 19:18:41;;;;;;;1.95;1.38;;;;;;;20.02;64.73;97057.31;10532036;28;20028;-28
2023/08/11 19:23:41;;;;;;;1.55;1.30;;;;;;;20.02;64.52;97058.13;10533540;28;20054;-28
2023/08/11 19:28:42;;;;;;;2.00;1.70;;;;;;;20.04;64.88;97065.78;10529856;28;20043;-28
2023/08/11 19:33:42;;;;;;;1.57;1.30;;;;;;;20.05;64.69;97062.41;10527095;28;20791;-28
2023/08/11 19:38:44;;;;;;;1.33;1.23;;;;;;;20.01;64.55;97065.78;10528224;28;20186;-28
2023/08/11 19:43:44;;;;;;;1.77;1.17;;;;;;;20.02;64.63;97062.38;10531077;28;20028;-28
2023/08/11 19:48:45;;;;;;;1.60;1.37;;;;;;;20.04;64.46;97065.78;10520785;28;20043;-30
2023/08/11 19:53:45;;;;;;;1.70;1.33;;;;;;;20.02;64.41;97057.31;10524277;28;20064;-28
2023/08/11 19:58:45;;;;;;;1.70;1.40;;;;;;;20.03;64.62;97051.38;10527193;28;20051;-28
2023/08/11 20:03:46;;;;;;;1.30;1.20;;;;;;;20.03;64.41;97053.91;10529765;28;20036;-29
2023/08/11 20:08:46;;;;;;;1.63;1.27;;;;;;;20.04;64.60;97056.50;10530539;28;20032;-29
2023/08/11 20:13:53;;;;;;;1.23;1.00;;;;;;;20.03;64.73;97056.44;10556316;27;21352;-27
2023/08/11 20:18:56;;;;;;;1.80;1.60;;;;;;;20.03;64.78;97056.44;10522783;28;20630;-27
2023/08/11 20:23:56;;;;;;;1.13;1.00;;;;;;;19.99;64.14;97050.53;10508699;28;20028;-27
2023/08/11 20:28:57;;;;;;;2.10;1.23;;;;;;;20.04;64.61;97045.44;10516001;28;20043;-27
2023/08/11 20:33:57;;;;;;;1.52;1.35;;;;;;;20.02;64.52;97039.50;10510372;28;20291;-27
2023/08/11 20:38:57;;;;;;;1.53;1.40;;;;;;;20.02;64.74;97047.13;10518565;28;20056;-27
2023/08/11 20:43:58;;;;;;;1.80;1.40;;;;;;;20.00;65.53;97044.59;10504017;28;20073;-27
2023/08/11 20:48:58;;;;;;;1.45;1.33;;;;;;;20.03;65.12;97053.91;10519703;28;20029;-27
2023/08/11 20:53:59;;;;;;;1.27;1.17;;;;;;;20.03;64.33;97051.38;10519405;28;21084;-27
2023/08/11 20:58:59;;;;;;;1.80;1.30;;;;;;;20.02;64.40;97047.13;10520090;28;20032;-27
2023/08/11 21:04:00;;;;;;;1.40;1.10;;;;;;;19.97;64.45;97043.75;10525775;28;20044;-27
2023/08/11 21:09:00;;;;;;;1.63;1.47;;;;;;;20.03;64.52;97043.75;10520089;28;21097;-27
2023/08/11 21:14:07;;;;;;;1.23;0.93;;;;;;;20.00;64.31;97044.59;10519973;28;20079;-27
2023/08/11 21:19:07;;;;;;;1.10;0.98;;;;;;;20.01;64.25;97051.38;10523865;28;20037;-26
2023/08/11 21:24:08;;;;;;;1.50;1.10;;;;;;;20.02;64.38;97067.47;10495062;28;20408;-28
2023/08/11 21:29:08;;;;;;;1.77;1.20;;;;;;;20.02;64.21;97063.22;10492205;28;20062;-27
2023/08/11 21:34:09;;;;;;;1.27;1.17;;;;;;;20.02;64.32;97065.75;10490073;28;20406;-27
2023/08/11 21:39:09;;;;;;;1.40;1.20;;;;;;;20.01;63.98;97066.59;10494442;28;20294;-27
2023/08/11 21:44:10;;;;;;;1.30;1.20;;;;;;;20.03;64.18;97066.63;10494396;28;20033;-27
2023/08/11 21:49:10;;;;;;;1.30;1.05;;;;;;;20.02;63.74;97063.22;10494974;28;20406;-27
2023/08/11 21:54:11;;;;;;;2.30;1.40;;;;;;;19.98;64.15;97055.59;10485183;28;20086;-27
2023/08/11 21:59:11;;;;;;;1.37;1.00;;;;;;;20.03;63.98;97064.06;10494862;28;20825;-28
2023/08/11 22:04:12;;;;;;;1.55;0.90;;;;;;;20.02;63.97;97062.38;10493678;28;20391;-27
2023/08/11 22:09:12;;;;;;;1.52;1.10;;;;;;;20.02;63.96;97059.84;10485860;28;20039;-28
2023/08/11 22:14:13;;;;;;;1.50;1.30;;;;;;;20.02;64.17;97059.84;10490544;28;20521;-27
2023/08/11 22:19:13;;;;;;;1.47;1.07;;;;;;;20.01;64.27;97046.28;10485561;28;20029;-27
2023/08/11 22:24:14;;;;;;;1.25;1.02;;;;;;;20.04;63.84;97053.94;10492558;28;20040;-27
2023/08/11 22:29:15;;;;;;;1.77;1.30;;;;;;;20.03;63.82;97043.75;10490237;28;20040;-27
2023/08/11 22:34:15;;;;;;;1.57;1.10;;;;;;;20.02;64.14;97042.06;10490589;28;20047;-27
2023/08/11 22:39:15;;;;;;;3.63;1.60;;;;;;;20.04;63.88;97053.94;10490096;28;20286;-28
2023/08/11 22:44:16;;;;;;;1.75;1.17;;;;;;;20.04;63.97;97053.94;10487100;28;20028;-27
2023/08/11 22:49:16;;;;;;;1.43;1.33;;;;;;;20.04;63.82;97055.59;10493287;28;20106;-27
2023/08/11 22:54:16;;;;;;;1.80;1.10;;;;;;;20.03;63.96;97039.50;10489576;28;20422;-27
2023/08/11 22:59:19;;;;;;;1.00;0.90;;;;;;;20.03;63.96;97036.13;10493296;28;20290;-27
2023/08/11 23:04:19;;;;;;;1.25;1.02;;;;;;;20.02;63.97;97029.34;10489120;28;20286;-27
2023/08/11 23:09:19;;;;;;;1.43;1.30;;;;;;;20.04;64.05;97025.09;10487044;28;20062;-27
2023/08/11 23:14:20;;;;;;;1.77;1.10;;;;;;;20.03;64.12;97013.25;10492462;28;20550;-27
2023/08/11 23:19:20;;;;;;;1.83;1.65;;;;;;;20.02;63.65;97009.00;10487349;28;20035;-27
2023/08/11 23:24:21;;;;;;;1.10;1.00;;;;;;;20.03;63.88;97013.25;10492519;28;20123;-27